sensor_id;sensor_type;location;lat;lon;timestamp;pressure;altitude;pressure_sealevel;temperature;humidity
38612;BME280;24368;52.156;20.788;2023-03-18T00:04:02;100930.65;;;3.31;64.71
38612;BME280;24368;52.156;20.788;2023-03-18T00:09:05;100933.58;;;3.31;64.50
38612;BME280;24368;52.156;20.788;2023-03-18T00:14:08;100934.25;;;3.29;64.27
38612;BME280;24368;52.156;20.788;2023-03-18T00:19:10;100927.55;;;3.24;64.01
38612;BME280;24368;52.156;20.788;2023-03-18T00:24:13;100928.54;;;3.23;63.70
38612;BME280;24368;52.156;20.788;2023-03-18T00:29:16;100921.88;;;3.20;64.19
38612;BME280;24368;52.156;20.788;2023-03-18T00:34:18;100917.82;;;3.15;64.47
38612;BME280;24368;52.156;20.788;2023-03-18T00:39:23;100909.41;;;3.13;64.51
38612;BME280;24368;52.156;20.788;2023-03-18T00:44:29;100904.05;;;3.09;64.78
38612;BME280;24368;52.156;20.788;2023-03-18T00:49:31;100899.33;;;3.07;64.56
38612;BME280;24368;52.156;20.788;2023-03-18T00:54:33;100896.22;;;3.04;64.62
38612;BME280;24368;52.156;20.788;2023-03-18T00:59:36;100893.07;;;3.01;64.49
38612;BME280;24368;52.156;20.788;2023-03-18T01:04:38;100890.75;;;2.99;64.37
38612;BME280;24368;52.156;20.788;2023-03-18T01:09:39;100881.59;;;2.95;65.06
38612;BME280;24368;52.156;20.788;2023-03-18T01:14:42;100872.45;;;2.94;64.50
38612;BME280;24368;52.156;20.788;2023-03-18T01:19:45;100870.62;;;2.95;64.46
38612;BME280;24368;52.156;20.788;2023-03-18T01:24:49;100861.91;;;2.92;64.14
38612;BME280;24368;52.156;20.788;2023-03-18T01:29:50;100868.14;;;2.90;64.31
38612;BME280;24368;52.156;20.788;2023-03-18T01:34:53;100864.20;;;2.89;64.02
38612;BME280;24368;52.156;20.788;2023-03-18T01:39:56;100862.24;;;2.87;63.98
38612;BME280;24368;52.156;20.788;2023-03-18T01:50:49;100859.37;;;2.83;63.77
38612;BME280;24368;52.156;20.788;2023-03-18T01:55:53;100850.05;;;2.79;63.92
38612;BME280;24368;52.156;20.788;2023-03-18T02:01:03;100855.31;;;2.78;63.95
38612;BME280;24368;52.156;20.788;2023-03-18T02:06:07;100860.17;;;2.75;63.56
38612;BME280;24368;52.156;20.788;2023-03-18T02:11:10;100857.63;;;2.71;64.02
38612;BME280;24368;52.156;20.788;2023-03-18T02:27:02;100858.16;;;2.62;64.31
38612;BME280;24368;52.156;20.788;2023-03-18T02:32:06;100858.78;;;2.58;64.76
38612;BME280;24368;52.156;20.788;2023-03-18T02:37:08;100850.55;;;2.56;64.24
38612;BME280;24368;52.156;20.788;2023-03-18T02:42:12;100847.09;;;2.55;64.20
38612;BME280;24368;52.156;20.788;2023-03-18T02:47:20;100845.38;;;2.52;64.58
38612;BME280;24368;52.156;20.788;2023-03-18T02:52:23;100846.50;;;2.44;65.17
38612;BME280;24368;52.156;20.788;2023-03-18T02:57:24;100836.29;;;2.41;65.21
38612;BME280;24368;52.156;20.788;2023-03-18T03:02:27;100835.19;;;2.39;65.35
38612;BME280;24368;52.156;20.788;2023-03-18T03:07:28;100827.67;;;2.39;65.87
38612;BME280;24368;52.156;20.788;2023-03-18T03:12:30;100814.30;;;2.36;66.12
38612;BME280;24368;52.156;20.788;2023-03-18T03:17:32;100816.13;;;2.35;65.54
38612;BME280;24368;52.156;20.788;2023-03-18T03:22:34;100822.19;;;2.32;65.65
38612;BME280;24368;52.156;20.788;2023-03-18T03:27:36;100821.48;;;2.33;65.30
38612;BME280;24368;52.156;20.788;2023-03-18T03:32:38;100817.17;;;2.35;64.42
38612;BME280;24368;52.156;20.788;2023-03-18T03:37:40;100819.23;;;2.35;64.63
38612;BME280;24368;52.156;20.788;2023-03-18T03:42:43;100824.38;;;2.31;64.66
38612;BME280;24368;52.156;20.788;2023-03-18T03:47:46;100825.44;;;2.30;64.39
38612;BME280;24368;52.156;20.788;2023-03-18T03:52:48;100825.93;;;2.28;64.64
38612;BME280;24368;52.156;20.788;2023-03-18T03:57:50;100835.14;;;2.28;63.71
38612;BME280;24368;52.156;20.788;2023-03-18T04:02:52;100834.45;;;2.28;63.85
38612;BME280;24368;52.156;20.788;2023-03-18T04:07:54;100827.20;;;2.27;63.77
38612;BME280;24368;52.156;20.788;2023-03-18T04:13:00;100830.05;;;2.22;63.92
38612;BME280;24368;52.156;20.788;2023-03-18T04:18:02;100826.91;;;2.19;64.06
38612;BME280;24368;52.156;20.788;2023-03-18T04:23:07;100824.67;;;2.13;64.61
38612;BME280;24368;52.156;20.788;2023-03-18T04:28:12;100830.60;;;2.10;64.77
38612;BME280;24368;52.156;20.788;2023-03-18T04:33:15;100836.89;;;2.06;65.04
38612;BME280;24368;52.156;20.788;2023-03-18T04:38:17;100840.26;;;2.05;64.94
38612;BME280;24368;52.156;20.788;2023-03-18T04:43:20;100842.97;;;2.01;64.98
38612;BME280;24368;52.156;20.788;2023-03-18T04:48:22;100846.77;;;1.98;65.39
38612;BME280;24368;52.156;20.788;2023-03-18T04:53:23;100845.23;;;1.94;65.63
38612;BME280;24368;52.156;20.788;2023-03-18T04:58:26;100835.34;;;1.91;66.31
38612;BME280;24368;52.156;20.788;2023-03-18T05:03:28;100831.84;;;1.88;66.30
38612;BME280;24368;52.156;20.788;2023-03-18T05:08:30;100834.08;;;1.86;66.54
38612;BME280;24368;52.156;20.788;2023-03-18T05:13:32;100838.61;;;1.85;66.64
38612;BME280;24368;52.156;20.788;2023-03-18T05:18:35;100835.48;;;1.85;66.62
38612;BME280;24368;52.156;20.788;2023-03-18T05:23:37;100831.88;;;1.91;66.39
38612;BME280;24368;52.156;20.788;2023-03-18T05:28:40;100828.30;;;1.95;66.03
38612;BME280;24368;52.156;20.788;2023-03-18T05:33:42;100825.90;;;1.98;66.25
38612;BME280;24368;52.156;20.788;2023-03-18T05:38:44;100829.52;;;2.05;65.67
38612;BME280;24368;52.156;20.788;2023-03-18T05:43:45;100825.98;;;2.12;64.93
38612;BME280;24368;52.156;20.788;2023-03-18T05:48:48;100828.98;;;2.23;64.94
38612;BME280;24368;52.156;20.788;2023-03-18T05:53:50;100836.66;;;2.32;64.70
38612;BME280;24368;52.156;20.788;2023-03-18T05:58:52;100842.52;;;2.44;64.76
38612;BME280;24368;52.156;20.788;2023-03-18T06:03:55;100837.66;;;2.59;63.41
38612;BME280;24368;52.156;20.788;2023-03-18T06:08:57;100829.95;;;2.68;63.27
38612;BME280;24368;52.156;20.788;2023-03-18T06:13:59;100832.05;;;2.77;61.91
38612;BME280;24368;52.156;20.788;2023-03-18T06:19:00;100832.34;;;2.89;61.31
38612;BME280;24368;52.156;20.788;2023-03-18T06:24:03;100827.27;;;3.01;61.84
38612;BME280;24368;52.156;20.788;2023-03-18T06:29:06;100823.86;;;3.11;60.87
38612;BME280;24368;52.156;20.788;2023-03-18T06:34:08;100820.92;;;3.19;60.60
38612;BME280;24368;52.156;20.788;2023-03-18T06:39:10;100827.27;;;3.24;61.35
38612;BME280;24368;52.156;20.788;2023-03-18T06:44:12;100831.00;;;3.34;59.43
38612;BME280;24368;52.156;20.788;2023-03-18T06:49:16;100837.88;;;3.41;58.97
38612;BME280;24368;52.156;20.788;2023-03-18T06:54:18;100836.64;;;3.52;58.20
38612;BME280;24368;52.156;20.788;2023-03-18T06:59:20;100838.27;;;3.62;57.85
38612;BME280;24368;52.156;20.788;2023-03-18T07:04:23;100839.98;;;3.68;57.34
38612;BME280;24368;52.156;20.788;2023-03-18T07:09:27;100839.55;;;3.78;57.43
38612;BME280;24368;52.156;20.788;2023-03-18T07:14:29;100844.67;;;3.85;57.05
38612;BME280;24368;52.156;20.788;2023-03-18T07:19:31;100843.17;;;3.95;56.28
38612;BME280;24368;52.156;20.788;2023-03-18T07:24:34;100847.36;;;4.02;56.59
38612;BME280;24368;52.156;20.788;2023-03-18T07:29:39;100850.41;;;4.11;56.84
38612;BME280;24368;52.156;20.788;2023-03-18T07:34:41;100856.69;;;4.25;55.96
38612;BME280;24368;52.156;20.788;2023-03-18T07:39:43;100856.66;;;4.38;55.44
38612;BME280;24368;52.156;20.788;2023-03-18T07:44:45;100860.98;;;4.45;55.01
38612;BME280;24368;52.156;20.788;2023-03-18T07:49:47;100859.34;;;4.61;54.70
38612;BME280;24368;52.156;20.788;2023-03-18T07:54:48;100857.56;;;4.82;54.09
38612;BME280;24368;52.156;20.788;2023-03-18T07:59:50;100852.40;;;5.01;53.84
38612;BME280;24368;52.156;20.788;2023-03-18T08:04:53;100851.93;;;5.11;52.92
38612;BME280;24368;52.156;20.788;2023-03-18T08:09:54;100858.73;;;5.21;52.14
38612;BME280;24368;52.156;20.788;2023-03-18T08:14:56;100848.70;;;5.42;51.87
38612;BME280;24368;52.156;20.788;2023-03-18T08:20:00;100847.23;;;5.62;51.46
38612;BME280;24368;52.156;20.788;2023-03-18T08:25:02;100842.69;;;5.77;50.49
38612;BME280;24368;52.156;20.788;2023-03-18T08:30:05;100838.27;;;5.94;48.99
38612;BME280;24368;52.156;20.788;2023-03-18T08:35:08;100834.96;;;6.11;48.19
38612;BME280;24368;52.156;20.788;2023-03-18T08:40:11;100825.77;;;6.24;48.78
38612;BME280;24368;52.156;20.788;2023-03-18T08:45:14;100829.25;;;6.50;48.06
38612;BME280;24368;52.156;20.788;2023-03-18T08:50:16;100817.90;;;6.59;47.30
38612;BME280;24368;52.156;20.788;2023-03-18T08:55:18;100812.70;;;6.63;47.43
38612;BME280;24368;52.156;20.788;2023-03-18T09:00:22;100820.45;;;6.72;46.90
38612;BME280;24368;52.156;20.788;2023-03-18T09:05:25;100815.02;;;6.92;46.45
38612;BME280;24368;52.156;20.788;2023-03-18T09:10:27;100804.60;;;7.02;45.69
38612;BME280;24368;52.156;20.788;2023-03-18T09:15:30;100805.29;;;7.06;45.46
38612;BME280;24368;52.156;20.788;2023-03-18T09:20:32;100803.34;;;7.25;45.06
38612;BME280;24368;52.156;20.788;2023-03-18T09:25:34;100798.41;;;7.40;45.03
38612;BME280;24368;52.156;20.788;2023-03-18T09:30:36;100789.41;;;7.65;45.06
38612;BME280;24368;52.156;20.788;2023-03-18T09:35:39;100792.45;;;7.73;43.72
38612;BME280;24368;52.156;20.788;2023-03-18T09:46:05;100775.29;;;8.04;44.33
38612;BME280;24368;52.156;20.788;2023-03-18T09:56:37;100771.76;;;8.15;44.54
38612;BME280;24368;52.156;20.788;2023-03-18T10:01:41;100778.17;;;8.41;43.98
38612;BME280;24368;52.156;20.788;2023-03-18T10:06:46;100778.63;;;8.57;42.64
38612;BME280;24368;52.156;20.788;2023-03-18T10:11:52;100776.66;;;8.70;42.92
38612;BME280;24368;52.156;20.788;2023-03-18T10:27:41;100761.84;;;9.23;40.99
38612;BME280;24368;52.156;20.788;2023-03-18T10:33:01;100757.88;;;9.18;39.85
38612;BME280;24368;52.156;20.788;2023-03-18T10:38:29;100756.70;;;9.33;39.65
38612;BME280;24368;52.156;20.788;2023-03-18T10:43:34;100746.91;;;9.48;39.36
38612;BME280;24368;52.156;20.788;2023-03-18T10:48:45;100742.96;;;9.67;39.05
38612;BME280;24368;52.156;20.788;2023-03-18T10:53:59;100740.10;;;9.79;37.88
38612;BME280;24368;52.156;20.788;2023-03-18T10:59:10;100728.65;;;9.79;38.83
38612;BME280;24368;52.156;20.788;2023-03-18T11:04:19;100721.33;;;10.20;39.85
38612;BME280;24368;52.156;20.788;2023-03-18T11:09:30;100723.30;;;10.34;37.46
38612;BME280;24368;52.156;20.788;2023-03-18T11:14:35;100723.42;;;10.66;36.74
38612;BME280;24368;52.156;20.788;2023-03-18T11:19:45;100718.05;;;10.93;36.16
38612;BME280;24368;52.156;20.788;2023-03-18T11:25:03;100704.79;;;11.36;36.78
38612;BME280;24368;52.156;20.788;2023-03-18T11:30:29;100699.23;;;11.84;35.83
38612;BME280;24368;52.156;20.788;2023-03-18T11:35:38;100694.02;;;12.16;35.68
38612;BME280;24368;52.156;20.788;2023-03-18T11:40:41;100697.54;;;12.44;33.52
38612;BME280;24368;52.156;20.788;2023-03-18T11:46:02;100685.83;;;12.58;33.17
38612;BME280;24368;52.156;20.788;2023-03-18T11:56:33;100690.87;;;14.71;28.99
38612;BME280;24368;52.156;20.788;2023-03-18T12:18:22;100672.13;;;16.07;26.88
38612;BME280;24368;52.156;20.788;2023-03-18T12:23:48;100664.86;;;15.57;28.43
38612;BME280;24368;52.156;20.788;2023-03-18T12:39:54;100645.20;;;16.12;27.46
38612;BME280;24368;52.156;20.788;2023-03-18T12:45:19;100644.05;;;16.50;26.46
38612;BME280;24368;52.156;20.788;2023-03-18T12:50:35;100632.20;;;16.79;26.17
38612;BME280;24368;52.156;20.788;2023-03-18T12:55:44;100621.98;;;17.60;25.99
38612;BME280;24368;52.156;20.788;2023-03-18T13:01:03;100625.02;;;18.65;25.04
38612;BME280;24368;52.156;20.788;2023-03-18T13:06:22;100632.35;;;19.34;23.47
38612;BME280;24368;52.156;20.788;2023-03-18T13:16:41;100625.80;;;18.36;24.32
38612;BME280;24368;52.156;20.788;2023-03-18T13:21:48;100625.67;;;18.56;25.11
38612;BME280;24368;52.156;20.788;2023-03-18T13:32:30;100623.61;;;14.54;28.24
38612;BME280;24368;52.156;20.788;2023-03-18T13:42:56;100613.09;;;14.10;29.57
38612;BME280;24368;52.156;20.788;2023-03-18T13:48:02;100610.73;;;13.66;30.40
38612;BME280;24368;52.156;20.788;2023-03-18T13:53:39;100600.21;;;13.93;29.98
38612;BME280;24368;52.156;20.788;2023-03-18T13:58:44;100595.69;;;14.58;29.38
38612;BME280;24368;52.156;20.788;2023-03-18T14:08:51;100587.05;;;15.78;28.37
38612;BME280;24368;52.156;20.788;2023-03-18T14:13:57;100577.45;;;16.29;28.43
38612;BME280;24368;52.156;20.788;2023-03-18T14:29:26;100570.80;;;16.28;27.88
38612;BME280;24368;52.156;20.788;2023-03-18T14:34:32;100568.33;;;15.40;29.21
38612;BME280;24368;52.156;20.788;2023-03-18T14:39:38;100570.88;;;14.28;31.11
38612;BME280;24368;52.156;20.788;2023-03-18T14:44:46;100569.64;;;13.61;32.27
38612;BME280;24368;52.156;20.788;2023-03-18T14:54:53;100555.92;;;12.86;33.98
38612;BME280;24368;52.156;20.788;2023-03-18T14:59:58;100551.19;;;12.65;34.91
38612;BME280;24368;52.156;20.788;2023-03-18T15:05:00;100547.13;;;12.44;35.68
38612;BME280;24368;52.156;20.788;2023-03-18T15:10:13;100546.62;;;12.22;36.20
38612;BME280;24368;52.156;20.788;2023-03-18T15:15:18;100553.79;;;12.08;36.78
38612;BME280;24368;52.156;20.788;2023-03-18T15:20:21;100549.05;;;11.94;37.39
38612;BME280;24368;52.156;20.788;2023-03-18T15:25:24;100554.32;;;11.80;37.52
38612;BME280;24368;52.156;20.788;2023-03-18T15:30:29;100550.38;;;11.65;37.55
38612;BME280;24368;52.156;20.788;2023-03-18T15:35:33;100552.61;;;11.52;37.27
38612;BME280;24368;52.156;20.788;2023-03-18T15:45:53;100552.73;;;11.38;37.97
38612;BME280;24368;52.156;20.788;2023-03-18T15:50:58;100553.55;;;11.28;37.84
38612;BME280;24368;52.156;20.788;2023-03-18T15:56:28;100550.41;;;11.21;38.18
38612;BME280;24368;52.156;20.788;2023-03-18T16:01:32;100550.22;;;11.19;38.86
38612;BME280;24368;52.156;20.788;2023-03-18T16:06:35;100547.71;;;11.16;38.93
38612;BME280;24368;52.156;20.788;2023-03-18T16:11:39;100552.50;;;11.03;38.90
38612;BME280;24368;52.156;20.788;2023-03-18T16:16:40;100565.02;;;10.96;39.35
38612;BME280;24368;52.156;20.788;2023-03-18T16:21:43;100568.85;;;10.88;39.27
38612;BME280;24368;52.156;20.788;2023-03-18T16:26:46;100571.77;;;10.80;39.97
38612;BME280;24368;52.156;20.788;2023-03-18T16:31:48;100579.30;;;10.71;40.17
38612;BME280;24368;52.156;20.788;2023-03-18T16:36:50;100575.31;;;10.67;40.31
38612;BME280;24368;52.156;20.788;2023-03-18T16:41:53;100577.98;;;10.63;40.21
38612;BME280;24368;52.156;20.788;2023-03-18T16:46:56;100576.59;;;10.54;40.72
38612;BME280;24368;52.156;20.788;2023-03-18T16:51:58;100577.66;;;10.46;40.95
38612;BME280;24368;52.156;20.788;2023-03-18T16:57:03;100577.40;;;10.43;41.54
38612;BME280;24368;52.156;20.788;2023-03-18T17:02:19;100579.07;;;10.36;41.43
38612;BME280;24368;52.156;20.788;2023-03-18T17:07:30;100584.05;;;10.31;41.64
38612;BME280;24368;52.156;20.788;2023-03-18T17:12:36;100585.91;;;10.24;41.60
38612;BME280;24368;52.156;20.788;2023-03-18T17:17:38;100593.40;;;10.21;41.79
38612;BME280;24368;52.156;20.788;2023-03-18T17:22:40;100598.09;;;10.18;41.88
38612;BME280;24368;52.156;20.788;2023-03-18T17:27:54;100602.61;;;10.15;41.69
38612;BME280;24368;52.156;20.788;2023-03-18T17:32:57;100604.54;;;10.06;42.35
38612;BME280;24368;52.156;20.788;2023-03-18T17:37:59;100608.02;;;10.04;42.05
38612;BME280;24368;52.156;20.788;2023-03-18T17:43:01;100608.06;;;9.98;42.00
38612;BME280;24368;52.156;20.788;2023-03-18T17:48:24;100606.05;;;9.92;42.06
38612;BME280;24368;52.156;20.788;2023-03-18T17:53:47;100601.41;;;9.85;43.12
38612;BME280;24368;52.156;20.788;2023-03-18T17:58:50;100600.55;;;9.79;43.19
38612;BME280;24368;52.156;20.788;2023-03-18T18:03:56;100595.92;;;9.76;43.20
38612;BME280;24368;52.156;20.788;2023-03-18T18:08:59;100595.85;;;9.73;43.21
38612;BME280;24368;52.156;20.788;2023-03-18T18:14:23;100593.54;;;9.66;43.87
38612;BME280;24368;52.156;20.788;2023-03-18T18:19:26;100588.73;;;9.60;43.59
38612;BME280;24368;52.156;20.788;2023-03-18T18:24:30;100582.83;;;9.53;43.97
38612;BME280;24368;52.156;20.788;2023-03-18T18:29:33;100584.38;;;9.48;43.95
38612;BME280;24368;52.156;20.788;2023-03-18T18:34:35;100583.94;;;9.42;44.31
38612;BME280;24368;52.156;20.788;2023-03-18T18:39:37;100581.52;;;9.39;44.20
38612;BME280;24368;52.156;20.788;2023-03-18T18:44:41;100586.71;;;9.36;43.84
38612;BME280;24368;52.156;20.788;2023-03-18T18:49:43;100586.25;;;9.32;44.17
38612;BME280;24368;52.156;20.788;2023-03-18T18:54:47;100589.56;;;9.28;44.43
38612;BME280;24368;52.156;20.788;2023-03-18T18:59:50;100591.63;;;9.25;44.49
38612;BME280;24368;52.156;20.788;2023-03-18T19:04:52;100591.44;;;9.23;44.45
38612;BME280;24368;52.156;20.788;2023-03-18T19:09:54;100592.27;;;9.16;44.68
38612;BME280;24368;52.156;20.788;2023-03-18T19:14:56;100594.89;;;9.08;44.73
38612;BME280;24368;52.156;20.788;2023-03-18T19:19:57;100590.97;;;9.03;45.15
38612;BME280;24368;52.156;20.788;2023-03-18T19:25:00;100592.74;;;8.97;45.58
38612;BME280;24368;52.156;20.788;2023-03-18T19:30:15;100592.23;;;8.91;45.82
38612;BME280;24368;52.156;20.788;2023-03-18T19:35:20;100596.45;;;8.89;45.38
38612;BME280;24368;52.156;20.788;2023-03-18T19:40:28;100601.41;;;8.87;45.53
38612;BME280;24368;52.156;20.788;2023-03-18T19:45:31;100601.16;;;8.78;46.19
38612;BME280;24368;52.156;20.788;2023-03-18T19:50:33;100599.65;;;8.73;46.11
38612;BME280;24368;52.156;20.788;2023-03-18T19:55:35;100595.01;;;8.64;46.67
38612;BME280;24368;52.156;20.788;2023-03-18T20:00:36;100595.16;;;8.62;46.75
38612;BME280;24368;52.156;20.788;2023-03-18T20:05:39;100590.23;;;8.52;46.84
38612;BME280;24368;52.156;20.788;2023-03-18T20:10:43;100585.63;;;8.51;46.87
38612;BME280;24368;52.156;20.788;2023-03-18T20:15:46;100589.02;;;8.44;47.09
38612;BME280;24368;52.156;20.788;2023-03-18T20:20:49;100587.27;;;8.38;47.09
38612;BME280;24368;52.156;20.788;2023-03-18T20:25:52;100588.73;;;8.35;47.45
38612;BME280;24368;52.156;20.788;2023-03-18T20:30:54;100585.59;;;8.33;47.71
38612;BME280;24368;52.156;20.788;2023-03-18T20:35:57;100587.13;;;8.29;47.68
38612;BME280;24368;52.156;20.788;2023-03-18T20:40:59;100591.13;;;8.24;47.75
38612;BME280;24368;52.156;20.788;2023-03-18T20:46:02;100587.07;;;8.18;48.05
38612;BME280;24368;52.156;20.788;2023-03-18T20:51:28;100588.80;;;8.16;48.00
38612;BME280;24368;52.156;20.788;2023-03-18T20:56:36;100588.54;;;8.11;48.53
38612;BME280;24368;52.156;20.788;2023-03-18T21:01:38;100593.56;;;8.07;48.76
38612;BME280;24368;52.156;20.788;2023-03-18T21:06:41;100587.33;;;8.02;48.84
38612;BME280;24368;52.156;20.788;2023-03-18T21:11:44;100587.93;;;8.00;49.06
38612;BME280;24368;52.156;20.788;2023-03-18T21:16:46;100587.00;;;7.98;49.05
38612;BME280;24368;52.156;20.788;2023-03-18T21:21:49;100587.63;;;7.89;49.37
38612;BME280;24368;52.156;20.788;2023-03-18T21:26:51;100582.55;;;7.89;49.75
38612;BME280;24368;52.156;20.788;2023-03-18T21:32:18;100584.52;;;7.84;49.82
38612;BME280;24368;52.156;20.788;2023-03-18T21:37:23;100582.54;;;7.77;50.19
38612;BME280;24368;52.156;20.788;2023-03-18T21:42:28;100578.63;;;7.73;50.26
38612;BME280;24368;52.156;20.788;2023-03-18T21:47:30;100581.80;;;7.71;50.35
38612;BME280;24368;52.156;20.788;2023-03-18T21:52:35;100581.79;;;7.65;50.85
38612;BME280;24368;52.156;20.788;2023-03-18T21:57:42;100579.93;;;7.60;50.97
38612;BME280;24368;52.156;20.788;2023-03-18T22:02:45;100575.23;;;7.57;50.96
38612;BME280;24368;52.156;20.788;2023-03-18T22:07:51;100576.30;;;7.51;51.53
38612;BME280;24368;52.156;20.788;2023-03-18T22:12:56;100578.86;;;7.43;51.51
38612;BME280;24368;52.156;20.788;2023-03-18T22:18:04;100574.50;;;7.41;51.92
38612;BME280;24368;52.156;20.788;2023-03-18T22:23:26;100576.95;;;7.35;52.12
38612;BME280;24368;52.156;20.788;2023-03-18T22:28:29;100579.44;;;7.34;52.11
38612;BME280;24368;52.156;20.788;2023-03-18T22:33:32;100578.17;;;7.28;52.49
38612;BME280;24368;52.156;20.788;2023-03-18T22:38:35;100585.54;;;7.22;52.77
38612;BME280;24368;52.156;20.788;2023-03-18T22:43:36;100580.87;;;7.17;53.05
38612;BME280;24368;52.156;20.788;2023-03-18T22:48:38;100582.05;;;7.18;53.07
38612;BME280;24368;52.156;20.788;2023-03-18T22:53:41;100588.08;;;7.06;53.11
38612;BME280;24368;52.156;20.788;2023-03-18T22:58:44;100578.17;;;7.03;53.54
38612;BME280;24368;52.156;20.788;2023-03-18T23:03:46;100581.20;;;7.02;53.60
38612;BME280;24368;52.156;20.788;2023-03-18T23:08:48;100586.52;;;6.93;53.76
38612;BME280;24368;52.156;20.788;2023-03-18T23:13:50;100586.34;;;6.86;53.83
38612;BME280;24368;52.156;20.788;2023-03-18T23:18:52;100585.33;;;6.82;54.27
38612;BME280;24368;52.156;20.788;2023-03-18T23:23:54;100586.66;;;6.72;54.49
38612;BME280;24368;52.156;20.788;2023-03-18T23:28:57;100588.18;;;6.59;54.92
38612;BME280;24368;52.156;20.788;2023-03-18T23:33:59;100585.36;;;6.53;55.27
38612;BME280;24368;52.156;20.788;2023-03-18T23:39:00;100586.95;;;6.53;55.43
38612;BME280;24368;52.156;20.788;2023-03-18T23:44:02;100582.63;;;6.45;55.73
38612;BME280;24368;52.156;20.788;2023-03-18T23:49:04;100589.54;;;6.38;55.81
38612;BME280;24368;52.156;20.788;2023-03-18T23:54:06;100580.23;;;6.34;56.15
38612;BME280;24368;52.156;20.788;2023-03-18T23:59:08;100574.69;;;6.29;56.29
